sensor_id;sensor_type;location;lat;lon;timestamp;P1;durP1;ratioP1;P2;durP2;ratioP2
71290;SDS011;59073;51.994;4.448;2022-12-07T00:07:38;0.82;;;0.67;;
71290;SDS011;59073;51.994;4.448;2022-12-07T00:17:35;0.93;;;0.70;;
71290;SDS011;59073;51.994;4.448;2022-12-07T00:23:42;1.01;;;0.70;;
71290;SDS011;59073;51.994;4.448;2022-12-07T00:26:34;1.12;;;0.76;;
71290;SDS011;59073;51.994;4.448;2022-12-07T00:29:11;1.36;;;0.92;;
71290;SDS011;59073;51.994;4.448;2022-12-07T00:32:24;1.55;;;1.07;;
71290;SDS011;59073;51.994;4.448;2022-12-07T00:35:00;1.40;;;0.99;;
71290;SDS011;59073;51.994;4.448;2022-12-07T00:37:31;1.15;;;0.83;;
71290;SDS011;59073;51.994;4.448;2022-12-07T00:40:05;1.47;;;1.08;;
71290;SDS011;59073;51.994;4.448;2022-12-07T00:42:45;1.17;;;0.86;;
71290;SDS011;59073;51.994;4.448;2022-12-07T00:45:59;1.28;;;0.94;;
71290;SDS011;59073;51.994;4.448;2022-12-07T00:48:40;1.33;;;0.97;;
71290;SDS011;59073;51.994;4.448;2022-12-07T00:55:09;1.22;;;0.89;;
71290;SDS011;59073;51.994;4.448;2022-12-07T01:04:17;1.83;;;1.37;;
71290;SDS011;59073;51.994;4.448;2022-12-07T01:06:53;1.43;;;1.09;;
71290;SDS011;59073;51.994;4.448;2022-12-07T01:09:23;1.65;;;1.27;;
71290;SDS011;59073;51.994;4.448;2022-12-07T01:11:52;1.39;;;1.07;;
71290;SDS011;59073;51.994;4.448;2022-12-07T01:14:31;1.29;;;0.98;;
71290;SDS011;59073;51.994;4.448;2022-12-07T01:20:56;1.02;;;0.78;;
71290;SDS011;59073;51.994;4.448;2022-12-07T01:23:44;1.07;;;0.82;;
71290;SDS011;59073;51.994;4.448;2022-12-07T01:26:38;0.99;;;0.74;;
71290;SDS011;59073;51.994;4.448;2022-12-07T01:29:21;1.21;;;0.88;;
71290;SDS011;59073;51.994;4.448;2022-12-07T01:32:15;1.26;;;0.92;;
71290;SDS011;59073;51.994;4.448;2022-12-07T01:37:49;1.13;;;0.82;;
71290;SDS011;59073;51.994;4.448;2022-12-07T01:50:06;0.83;;;0.62;;
71290;SDS011;59073;51.994;4.448;2022-12-07T01:52:46;1.04;;;0.76;;
71290;SDS011;59073;51.994;4.448;2022-12-07T01:55:31;1.48;;;1.06;;
71290;SDS011;59073;51.994;4.448;2022-12-07T01:58:08;1.52;;;1.06;;
71290;SDS011;59073;51.994;4.448;2022-12-07T02:00:56;1.81;;;1.24;;
71290;SDS011;59073;51.994;4.448;2022-12-07T02:03:41;1.28;;;0.86;;
71290;SDS011;59073;51.994;4.448;2022-12-07T02:06:35;2.22;;;1.45;;
71290;SDS011;59073;51.994;4.448;2022-12-07T02:12:19;2.31;;;1.48;;
71290;SDS011;59073;51.994;4.448;2022-12-07T02:14:59;1.77;;;1.13;;
71290;SDS011;59073;51.994;4.448;2022-12-07T02:37:01;1.76;;;1.11;;
71290;SDS011;59073;51.994;4.448;2022-12-07T02:39:46;1.42;;;0.90;;
71290;SDS011;59073;51.994;4.448;2022-12-07T02:42:31;1.56;;;0.99;;
71290;SDS011;59073;51.994;4.448;2022-12-07T02:45:11;2.25;;;1.43;;
71290;SDS011;59073;51.994;4.448;2022-12-07T02:47:42;1.38;;;0.86;;
71290;SDS011;59073;51.994;4.448;2022-12-07T02:50:56;1.67;;;1.03;;
71290;SDS011;59073;51.994;4.448;2022-12-07T02:54:09;2.41;;;1.48;;
71290;SDS011;59073;51.994;4.448;2022-12-07T03:00:24;1.96;;;1.21;;
71290;SDS011;59073;51.994;4.448;2022-12-07T03:03:00;1.14;;;0.71;;
71290;SDS011;59073;51.994;4.448;2022-12-07T03:09:51;1.55;;;0.98;;
71290;SDS011;59073;51.994;4.448;2022-12-07T03:30:06;2.47;;;1.50;;
71290;SDS011;59073;51.994;4.448;2022-12-07T03:33:05;1.51;;;0.92;;
71290;SDS011;59073;51.994;4.448;2022-12-07T03:36:21;2.09;;;1.28;;
71290;SDS011;59073;51.994;4.448;2022-12-07T03:40:21;2.99;;;1.81;;
71290;SDS011;59073;51.994;4.448;2022-12-07T03:43:01;2.73;;;1.62;;
71290;SDS011;59073;51.994;4.448;2022-12-07T03:48:53;2.05;;;1.23;;
71290;SDS011;59073;51.994;4.448;2022-12-07T03:57:54;2.04;;;1.22;;
71290;SDS011;59073;51.994;4.448;2022-12-07T04:00:40;1.64;;;0.98;;
71290;SDS011;59073;51.994;4.448;2022-12-07T04:03:52;1.79;;;1.08;;
71290;SDS011;59073;51.994;4.448;2022-12-07T04:06:19;1.48;;;0.89;;
71290;SDS011;59073;51.994;4.448;2022-12-07T04:08:45;1.57;;;0.95;;
71290;SDS011;59073;51.994;4.448;2022-12-07T04:11:19;0.82;;;0.50;;
71290;SDS011;59073;51.994;4.448;2022-12-07T04:13:55;1.72;;;1.05;;
71290;SDS011;59073;51.994;4.448;2022-12-07T04:19:55;1.89;;;1.17;;
71290;SDS011;59073;51.994;4.448;2022-12-07T04:22:30;1.50;;;0.93;;
71290;SDS011;59073;51.994;4.448;2022-12-07T04:25:18;1.39;;;0.86;;
71290;SDS011;59073;51.994;4.448;2022-12-07T04:27:55;2.08;;;1.26;;
71290;SDS011;59073;51.994;4.448;2022-12-07T04:30:23;1.61;;;0.96;;
71290;SDS011;59073;51.994;4.448;2022-12-07T04:32:51;1.42;;;0.85;;
71290;SDS011;59073;51.994;4.448;2022-12-07T04:35:27;1.68;;;1.00;;
71290;SDS011;59073;51.994;4.448;2022-12-07T04:38:00;1.81;;;1.08;;
71290;SDS011;59073;51.994;4.448;2022-12-07T04:40:54;1.49;;;0.89;;
71290;SDS011;59073;51.994;4.448;2022-12-07T04:44:05;1.75;;;1.05;;
71290;SDS011;59073;51.994;4.448;2022-12-07T04:47:08;1.74;;;1.05;;
71290;SDS011;59073;51.994;4.448;2022-12-07T04:50:01;1.34;;;0.81;;
71290;SDS011;59073;51.994;4.448;2022-12-07T04:55:51;1.92;;;1.15;;
71290;SDS011;59073;51.994;4.448;2022-12-07T04:58:48;1.20;;;0.73;;
71290;SDS011;59073;51.994;4.448;2022-12-07T05:12:08;1.58;;;0.96;;
71290;SDS011;59073;51.994;4.448;2022-12-07T05:15:23;1.76;;;1.07;;
71290;SDS011;59073;51.994;4.448;2022-12-07T05:17:55;1.92;;;1.18;;
71290;SDS011;59073;51.994;4.448;2022-12-07T05:20:52;2.21;;;1.36;;
71290;SDS011;59073;51.994;4.448;2022-12-07T05:24:02;2.08;;;1.29;;
71290;SDS011;59073;51.994;4.448;2022-12-07T05:26:47;2.78;;;1.71;;
71290;SDS011;59073;51.994;4.448;2022-12-07T05:32:58;1.81;;;1.09;;
71290;SDS011;59073;51.994;4.448;2022-12-07T05:35:49;2.82;;;1.71;;
71290;SDS011;59073;51.994;4.448;2022-12-07T05:55:18;2.27;;;1.43;;
71290;SDS011;59073;51.994;4.448;2022-12-07T06:05:33;1.78;;;1.13;;
71290;SDS011;59073;51.994;4.448;2022-12-07T06:19:47;1.71;;;1.29;;
71290;SDS011;59073;51.994;4.448;2022-12-07T06:22:13;1.15;;;0.87;;
71290;SDS011;59073;51.994;4.448;2022-12-07T06:24:44;1.18;;;0.89;;
71290;SDS011;59073;51.994;4.448;2022-12-07T06:27:12;0.76;;;0.57;;
71290;SDS011;59073;51.994;4.448;2022-12-07T06:29:38;1.03;;;0.78;;
71290;SDS011;59073;51.994;4.448;2022-12-07T06:32:03;0.89;;;0.67;;
71290;SDS011;59073;51.994;4.448;2022-12-07T06:34:29;1.44;;;1.08;;
71290;SDS011;59073;51.994;4.448;2022-12-07T06:37:01;1.43;;;1.05;;
71290;SDS011;59073;51.994;4.448;2022-12-07T06:39:27;1.17;;;0.85;;
71290;SDS011;59073;51.994;4.448;2022-12-07T06:41:54;1.23;;;0.90;;
71290;SDS011;59073;51.994;4.448;2022-12-07T06:44:19;1.50;;;1.09;;
71290;SDS011;59073;51.994;4.448;2022-12-07T06:46:47;1.05;;;0.77;;
71290;SDS011;59073;51.994;4.448;2022-12-07T06:49:12;1.17;;;0.85;;
71290;SDS011;59073;51.994;4.448;2022-12-07T06:51:38;1.40;;;1.00;;
71290;SDS011;59073;51.994;4.448;2022-12-07T06:54:13;1.52;;;1.11;;
71290;SDS011;59073;51.994;4.448;2022-12-07T06:56:39;1.72;;;1.26;;
71290;SDS011;59073;51.994;4.448;2022-12-07T06:59:24;1.27;;;0.94;;
71290;SDS011;59073;51.994;4.448;2022-12-07T07:02:09;1.80;;;1.33;;
71290;SDS011;59073;51.994;4.448;2022-12-07T07:04:34;1.48;;;1.10;;
71290;SDS011;59073;51.994;4.448;2022-12-07T07:07:00;1.12;;;0.83;;
71290;SDS011;59073;51.994;4.448;2022-12-07T07:09:25;1.30;;;0.96;;
71290;SDS011;59073;51.994;4.448;2022-12-07T07:11:51;1.51;;;1.14;;
71290;SDS011;59073;51.994;4.448;2022-12-07T07:14:16;1.71;;;1.28;;
71290;SDS011;59073;51.994;4.448;2022-12-07T07:16:44;1.58;;;1.19;;
71290;SDS011;59073;51.994;4.448;2022-12-07T07:19:09;1.43;;;1.08;;
71290;SDS011;59073;51.994;4.448;2022-12-07T07:21:36;1.66;;;1.24;;
71290;SDS011;59073;51.994;4.448;2022-12-07T07:24:01;2.91;;;2.20;;
71290;SDS011;59073;51.994;4.448;2022-12-07T07:26:27;2.33;;;1.84;;
71290;SDS011;59073;51.994;4.448;2022-12-07T07:28:52;1.89;;;1.51;;
71290;SDS011;59073;51.994;4.448;2022-12-07T07:31:17;1.67;;;1.32;;
71290;SDS011;59073;51.994;4.448;2022-12-07T07:33:44;1.27;;;1.01;;
71290;SDS011;59073;51.994;4.448;2022-12-07T07:36:11;1.19;;;0.90;;
71290;SDS011;59073;51.994;4.448;2022-12-07T07:38:36;1.18;;;0.86;;
71290;SDS011;59073;51.994;4.448;2022-12-07T07:41:02;1.18;;;0.83;;
71290;SDS011;59073;51.994;4.448;2022-12-07T07:43:27;1.40;;;0.97;;
71290;SDS011;59073;51.994;4.448;2022-12-07T07:45:53;1.47;;;1.00;;
71290;SDS011;59073;51.994;4.448;2022-12-07T07:48:18;1.38;;;0.93;;
71290;SDS011;59073;51.994;4.448;2022-12-07T07:50:43;1.34;;;0.89;;
71290;SDS011;59073;51.994;4.448;2022-12-07T07:53:09;1.51;;;1.01;;
71290;SDS011;59073;51.994;4.448;2022-12-07T07:55:34;1.62;;;1.09;;
71290;SDS011;59073;51.994;4.448;2022-12-07T07:58:00;1.62;;;1.08;;
71290;SDS011;59073;51.994;4.448;2022-12-07T08:00:25;1.83;;;1.22;;
71290;SDS011;59073;51.994;4.448;2022-12-07T08:02:51;1.67;;;1.10;;
71290;SDS011;59073;51.994;4.448;2022-12-07T08:05:16;2.02;;;1.32;;
71290;SDS011;59073;51.994;4.448;2022-12-07T08:07:42;2.29;;;1.50;;
71290;SDS011;59073;51.994;4.448;2022-12-07T08:10:09;2.48;;;1.65;;
71290;SDS011;59073;51.994;4.448;2022-12-07T08:12:38;1.67;;;1.14;;
71290;SDS011;59073;51.994;4.448;2022-12-07T08:15:25;1.49;;;1.04;;
71290;SDS011;59073;51.994;4.448;2022-12-07T08:17:52;1.98;;;1.38;;
71290;SDS011;59073;51.994;4.448;2022-12-07T08:20:17;1.59;;;1.11;;
71290;SDS011;59073;51.994;4.448;2022-12-07T08:22:43;1.52;;;1.08;;
71290;SDS011;59073;51.994;4.448;2022-12-07T08:25:08;1.01;;;0.73;;
71290;SDS011;59073;51.994;4.448;2022-12-07T08:27:33;1.16;;;0.85;;
71290;SDS011;59073;51.994;4.448;2022-12-07T08:32:38;1.46;;;1.09;;
71290;SDS011;59073;51.994;4.448;2022-12-07T08:35:08;1.43;;;1.09;;
71290;SDS011;59073;51.994;4.448;2022-12-07T08:37:44;1.17;;;0.89;;
71290;SDS011;59073;51.994;4.448;2022-12-07T08:40:13;1.22;;;0.94;;
71290;SDS011;59073;51.994;4.448;2022-12-07T08:45:43;1.35;;;1.04;;
71290;SDS011;59073;51.994;4.448;2022-12-07T08:48:25;1.51;;;1.15;;
71290;SDS011;59073;51.994;4.448;2022-12-07T08:50:54;1.53;;;1.17;;
71290;SDS011;59073;51.994;4.448;2022-12-07T08:53:20;1.28;;;0.99;;
71290;SDS011;59073;51.994;4.448;2022-12-07T09:52:00;1.87;;;1.57;;
71290;SDS011;59073;51.994;4.448;2022-12-07T09:54:29;1.76;;;1.47;;
71290;SDS011;59073;51.994;4.448;2022-12-07T09:59:59;1.75;;;1.48;;
71290;SDS011;59073;51.994;4.448;2022-12-07T10:05:59;1.23;;;1.04;;
71290;SDS011;59073;51.994;4.448;2022-12-07T10:08:35;0.97;;;0.83;;
71290;SDS011;59073;51.994;4.448;2022-12-07T10:11:04;1.02;;;0.87;;
71290;SDS011;59073;51.994;4.448;2022-12-07T10:13:37;0.90;;;0.76;;
71290;SDS011;59073;51.994;4.448;2022-12-07T10:16:26;0.99;;;0.82;;
71290;SDS011;59073;51.994;4.448;2022-12-07T10:18:57;1.32;;;1.10;;
71290;SDS011;59073;51.994;4.448;2022-12-07T10:24:53;1.12;;;0.92;;
71290;SDS011;59073;51.994;4.448;2022-12-07T10:27:31;1.33;;;1.10;;
71290;SDS011;59073;51.994;4.448;2022-12-07T10:30:01;1.33;;;1.10;;
71290;SDS011;59073;51.994;4.448;2022-12-07T10:32:39;0.93;;;0.77;;
71290;SDS011;59073;51.994;4.448;2022-12-07T10:35:18;0.89;;;0.74;;
71290;SDS011;59073;51.994;4.448;2022-12-07T10:37:52;1.44;;;1.19;;
71290;SDS011;59073;51.994;4.448;2022-12-07T10:40:32;1.18;;;0.96;;
71290;SDS011;59073;51.994;4.448;2022-12-07T10:45:26;1.42;;;1.15;;
71290;SDS011;59073;51.994;4.448;2022-12-07T10:50:35;0.82;;;0.68;;
71290;SDS011;59073;51.994;4.448;2022-12-07T10:53:18;1.14;;;0.94;;
71290;SDS011;59073;51.994;4.448;2022-12-07T10:56:05;1.23;;;1.01;;
71290;SDS011;59073;51.994;4.448;2022-12-07T10:58:54;1.16;;;0.92;;
71290;SDS011;59073;51.994;4.448;2022-12-07T11:01:32;1.21;;;0.92;;
71290;SDS011;59073;51.994;4.448;2022-12-07T11:31:34;0.98;;;0.67;;
71290;SDS011;59073;51.994;4.448;2022-12-07T11:37:15;1.19;;;0.81;;
71290;SDS011;59073;51.994;4.448;2022-12-07T11:39:56;0.90;;;0.61;;
71290;SDS011;59073;51.994;4.448;2022-12-07T11:42:39;0.61;;;0.41;;
71290;SDS011;59073;51.994;4.448;2022-12-07T11:45:34;0.93;;;0.62;;
71290;SDS011;59073;51.994;4.448;2022-12-07T11:48:04;1.11;;;0.73;;
71290;SDS011;59073;51.994;4.448;2022-12-07T11:50:40;0.81;;;0.53;;
71290;SDS011;59073;51.994;4.448;2022-12-07T11:53:16;1.18;;;0.77;;
71290;SDS011;59073;51.994;4.448;2022-12-07T11:55:57;1.30;;;0.85;;
71290;SDS011;59073;51.994;4.448;2022-12-07T11:58:48;0.96;;;0.63;;
71290;SDS011;59073;51.994;4.448;2022-12-07T12:06:39;0.97;;;0.65;;
71290;SDS011;59073;51.994;4.448;2022-12-07T12:09:11;1.24;;;0.82;;
71290;SDS011;59073;51.994;4.448;2022-12-07T12:11:47;1.70;;;1.12;;
71290;SDS011;59073;51.994;4.448;2022-12-07T12:14:48;1.83;;;1.21;;
71290;SDS011;59073;51.994;4.448;2022-12-07T12:20:19;1.80;;;1.21;;
71290;SDS011;59073;51.994;4.448;2022-12-07T12:25:34;1.35;;;0.93;;
71290;SDS011;59073;51.994;4.448;2022-12-07T12:28:11;1.44;;;0.99;;
71290;SDS011;59073;51.994;4.448;2022-12-07T12:30:45;1.31;;;0.91;;
71290;SDS011;59073;51.994;4.448;2022-12-07T12:33:14;1.82;;;1.27;;
71290;SDS011;59073;51.994;4.448;2022-12-07T12:46:55;1.68;;;1.15;;
71290;SDS011;59073;51.994;4.448;2022-12-07T12:54:27;1.43;;;0.97;;
71290;SDS011;59073;51.994;4.448;2022-12-07T12:59:42;1.48;;;0.99;;
71290;SDS011;59073;51.994;4.448;2022-12-07T13:13:01;1.18;;;0.78;;
71290;SDS011;59073;51.994;4.448;2022-12-07T13:18:00;1.02;;;0.67;;
71290;SDS011;59073;51.994;4.448;2022-12-07T13:26:21;1.78;;;1.13;;
71290;SDS011;59073;51.994;4.448;2022-12-07T13:36:58;0.95;;;0.60;;
71290;SDS011;59073;51.994;4.448;2022-12-07T13:39:32;0.99;;;0.62;;
71290;SDS011;59073;51.994;4.448;2022-12-07T13:42:13;1.14;;;0.72;;
71290;SDS011;59073;51.994;4.448;2022-12-07T13:44:53;0.77;;;0.48;;
71290;SDS011;59073;51.994;4.448;2022-12-07T13:47:59;0.90;;;0.57;;
71290;SDS011;59073;51.994;4.448;2022-12-07T13:50:34;1.05;;;0.66;;
71290;SDS011;59073;51.994;4.448;2022-12-07T13:53:07;1.18;;;0.75;;
71290;SDS011;59073;51.994;4.448;2022-12-07T13:55:40;0.63;;;0.40;;
71290;SDS011;59073;51.994;4.448;2022-12-07T13:58:21;1.04;;;0.66;;
71290;SDS011;59073;51.994;4.448;2022-12-07T14:00:50;1.11;;;0.71;;
71290;SDS011;59073;51.994;4.448;2022-12-07T14:03:29;1.29;;;0.84;;
71290;SDS011;59073;51.994;4.448;2022-12-07T14:06:13;0.98;;;0.64;;
71290;SDS011;59073;51.994;4.448;2022-12-07T14:08:40;0.90;;;0.59;;
71290;SDS011;59073;51.994;4.448;2022-12-07T14:11:06;1.23;;;0.81;;
71290;SDS011;59073;51.994;4.448;2022-12-07T14:16:27;1.26;;;0.83;;
71290;SDS011;59073;51.994;4.448;2022-12-07T14:18:57;1.06;;;0.71;;
71290;SDS011;59073;51.994;4.448;2022-12-07T14:21:28;0.94;;;0.64;;
71290;SDS011;59073;51.994;4.448;2022-12-07T14:24:17;1.05;;;0.70;;
71290;SDS011;59073;51.994;4.448;2022-12-07T14:26:45;1.55;;;1.03;;
71290;SDS011;59073;51.994;4.448;2022-12-07T14:29:29;1.72;;;1.12;;
71290;SDS011;59073;51.994;4.448;2022-12-07T14:32:19;1.62;;;1.07;;
71290;SDS011;59073;51.994;4.448;2022-12-07T14:34:57;1.68;;;1.11;;
71290;SDS011;59073;51.994;4.448;2022-12-07T14:37:25;1.44;;;0.96;;
71290;SDS011;59073;51.994;4.448;2022-12-07T14:39:51;1.29;;;0.86;;
71290;SDS011;59073;51.994;4.448;2022-12-07T14:42:17;1.48;;;1.00;;
71290;SDS011;59073;51.994;4.448;2022-12-07T14:44:42;1.33;;;0.92;;
71290;SDS011;59073;51.994;4.448;2022-12-07T14:47:09;1.57;;;1.08;;
71290;SDS011;59073;51.994;4.448;2022-12-07T14:49:36;1.13;;;0.78;;
71290;SDS011;59073;51.994;4.448;2022-12-07T14:52:01;1.36;;;0.94;;
71290;SDS011;59073;51.994;4.448;2022-12-07T14:54:27;1.41;;;1.00;;
71290;SDS011;59073;51.994;4.448;2022-12-07T14:56:57;1.59;;;1.15;;
71290;SDS011;59073;51.994;4.448;2022-12-07T14:59:23;1.61;;;1.17;;
71290;SDS011;59073;51.994;4.448;2022-12-07T15:01:48;1.56;;;1.15;;
71290;SDS011;59073;51.994;4.448;2022-12-07T15:04:14;1.59;;;1.16;;
71290;SDS011;59073;51.994;4.448;2022-12-07T15:06:39;1.36;;;0.99;;
71290;SDS011;59073;51.994;4.448;2022-12-07T15:09:05;1.68;;;1.25;;
71290;SDS011;59073;51.994;4.448;2022-12-07T15:11:30;1.38;;;1.04;;
71290;SDS011;59073;51.994;4.448;2022-12-07T15:13:56;1.40;;;1.05;;
71290;SDS011;59073;51.994;4.448;2022-12-07T15:16:34;1.56;;;1.19;;
71290;SDS011;59073;51.994;4.448;2022-12-07T15:19:01;1.17;;;0.91;;
71290;SDS011;59073;51.994;4.448;2022-12-07T15:21:26;1.10;;;0.86;;
71290;SDS011;59073;51.994;4.448;2022-12-07T15:23:52;1.39;;;1.11;;
71290;SDS011;59073;51.994;4.448;2022-12-07T15:26:18;1.09;;;0.86;;
71290;SDS011;59073;51.994;4.448;2022-12-07T15:28:44;1.45;;;1.14;;
71290;SDS011;59073;51.994;4.448;2022-12-07T15:31:13;1.33;;;1.03;;
71290;SDS011;59073;51.994;4.448;2022-12-07T15:33:40;1.38;;;1.10;;
71290;SDS011;59073;51.994;4.448;2022-12-07T15:36:06;1.11;;;0.90;;
71290;SDS011;59073;51.994;4.448;2022-12-07T15:38:32;1.10;;;0.90;;
71290;SDS011;59073;51.994;4.448;2022-12-07T15:40:57;0.99;;;0.79;;
71290;SDS011;59073;51.994;4.448;2022-12-07T15:43:22;1.25;;;0.97;;
71290;SDS011;59073;51.994;4.448;2022-12-07T15:46:07;0.93;;;0.72;;
71290;SDS011;59073;51.994;4.448;2022-12-07T15:48:32;0.98;;;0.75;;
71290;SDS011;59073;51.994;4.448;2022-12-07T15:51:05;1.36;;;1.05;;
71290;SDS011;59073;51.994;4.448;2022-12-07T15:53:32;1.64;;;1.28;;
71290;SDS011;59073;51.994;4.448;2022-12-07T15:55:59;1.40;;;1.08;;
71290;SDS011;59073;51.994;4.448;2022-12-07T15:58:25;1.48;;;1.15;;
71290;SDS011;59073;51.994;4.448;2022-12-07T16:00:50;1.43;;;1.08;;
71290;SDS011;59073;51.994;4.448;2022-12-07T16:03:16;1.16;;;0.87;;
71290;SDS011;59073;51.994;4.448;2022-12-07T16:05:41;1.50;;;1.13;;
71290;SDS011;59073;51.994;4.448;2022-12-07T16:08:13;1.03;;;0.78;;
71290;SDS011;59073;51.994;4.448;2022-12-07T16:10:38;1.26;;;0.96;;
71290;SDS011;59073;51.994;4.448;2022-12-07T16:13:06;0.85;;;0.63;;
71290;SDS011;59073;51.994;4.448;2022-12-07T16:15:32;1.32;;;0.97;;
71290;SDS011;59073;51.994;4.448;2022-12-07T16:17:57;0.90;;;0.67;;
71290;SDS011;59073;51.994;4.448;2022-12-07T16:20:23;1.08;;;0.80;;
71290;SDS011;59073;51.994;4.448;2022-12-07T16:22:51;1.11;;;0.83;;
71290;SDS011;59073;51.994;4.448;2022-12-07T16:25:17;1.12;;;0.83;;
71290;SDS011;59073;51.994;4.448;2022-12-07T16:27:43;0.96;;;0.70;;
71290;SDS011;59073;51.994;4.448;2022-12-07T16:30:08;1.34;;;0.97;;
71290;SDS011;59073;51.994;4.448;2022-12-07T16:32:34;1.30;;;0.95;;
71290;SDS011;59073;51.994;4.448;2022-12-07T16:34:59;1.24;;;0.91;;
71290;SDS011;59073;51.994;4.448;2022-12-07T16:37:25;1.00;;;0.74;;
71290;SDS011;59073;51.994;4.448;2022-12-07T16:39:50;1.38;;;1.03;;
71290;SDS011;59073;51.994;4.448;2022-12-07T16:42:15;1.10;;;0.83;;
71290;SDS011;59073;51.994;4.448;2022-12-07T16:44:41;1.40;;;1.08;;
71290;SDS011;59073;51.994;4.448;2022-12-07T16:47:06;1.14;;;0.88;;
71290;SDS011;59073;51.994;4.448;2022-12-07T16:49:32;1.24;;;0.96;;
71290;SDS011;59073;51.994;4.448;2022-12-07T16:51:57;1.25;;;0.96;;
71290;SDS011;59073;51.994;4.448;2022-12-07T16:54:22;0.93;;;0.72;;
71290;SDS011;59073;51.994;4.448;2022-12-07T16:56:48;1.32;;;1.02;;
71290;SDS011;59073;51.994;4.448;2022-12-07T16:59:13;1.43;;;1.11;;
71290;SDS011;59073;51.994;4.448;2022-12-07T17:01:39;1.53;;;1.19;;
71290;SDS011;59073;51.994;4.448;2022-12-07T17:04:04;1.60;;;1.25;;
71290;SDS011;59073;51.994;4.448;2022-12-07T17:06:30;1.50;;;1.22;;
71290;SDS011;59073;51.994;4.448;2022-12-07T17:08:56;1.62;;;1.32;;
71290;SDS011;59073;51.994;4.448;2022-12-07T17:11:23;1.41;;;1.17;;
71290;SDS011;59073;51.994;4.448;2022-12-07T17:13:53;1.12;;;0.95;;
71290;SDS011;59073;51.994;4.448;2022-12-07T17:16:38;0.88;;;0.75;;
71290;SDS011;59073;51.994;4.448;2022-12-07T17:19:06;1.02;;;0.87;;
71290;SDS011;59073;51.994;4.448;2022-12-07T17:21:33;1.26;;;1.05;;
71290;SDS011;59073;51.994;4.448;2022-12-07T17:23:59;1.23;;;1.02;;
71290;SDS011;59073;51.994;4.448;2022-12-07T17:26:26;1.41;;;1.15;;
71290;SDS011;59073;51.994;4.448;2022-12-07T17:31:50;1.36;;;1.06;;
71290;SDS011;59073;51.994;4.448;2022-12-07T17:34:15;1.47;;;1.14;;
71290;SDS011;59073;51.994;4.448;2022-12-07T17:36:41;1.21;;;0.94;;
71290;SDS011;59073;51.994;4.448;2022-12-07T17:39:10;1.37;;;1.07;;
71290;SDS011;59073;51.994;4.448;2022-12-07T17:41:40;1.12;;;0.87;;
71290;SDS011;59073;51.994;4.448;2022-12-07T17:44:24;1.05;;;0.82;;
71290;SDS011;59073;51.994;4.448;2022-12-07T17:46:50;1.10;;;0.86;;
71290;SDS011;59073;51.994;4.448;2022-12-07T17:49:23;1.13;;;0.87;;
71290;SDS011;59073;51.994;4.448;2022-12-07T17:51:49;1.33;;;1.02;;
71290;SDS011;59073;51.994;4.448;2022-12-07T17:54:33;0.98;;;0.75;;
71290;SDS011;59073;51.994;4.448;2022-12-07T17:56:59;1.22;;;0.95;;
71290;SDS011;59073;51.994;4.448;2022-12-07T17:59:24;0.92;;;0.72;;
71290;SDS011;59073;51.994;4.448;2022-12-07T18:01:49;0.86;;;0.67;;
71290;SDS011;59073;51.994;4.448;2022-12-07T18:04:15;0.85;;;0.66;;
71290;SDS011;59073;51.994;4.448;2022-12-07T18:06:41;1.10;;;0.86;;
71290;SDS011;59073;51.994;4.448;2022-12-07T18:09:07;1.08;;;0.86;;
71290;SDS011;59073;51.994;4.448;2022-12-07T18:11:33;0.88;;;0.70;;
71290;SDS011;59073;51.994;4.448;2022-12-07T18:13:59;0.84;;;0.68;;
71290;SDS011;59073;51.994;4.448;2022-12-07T18:16:25;0.84;;;0.68;;
71290;SDS011;59073;51.994;4.448;2022-12-07T18:18:52;0.72;;;0.58;;
71290;SDS011;59073;51.994;4.448;2022-12-07T18:21:22;0.78;;;0.63;;
71290;SDS011;59073;51.994;4.448;2022-12-07T18:23:51;0.88;;;0.70;;
71290;SDS011;59073;51.994;4.448;2022-12-07T18:26:19;0.66;;;0.53;;
71290;SDS011;59073;51.994;4.448;2022-12-07T18:28:46;0.99;;;0.77;;
71290;SDS011;59073;51.994;4.448;2022-12-07T18:31:13;0.72;;;0.55;;
71290;SDS011;59073;51.994;4.448;2022-12-07T18:33:39;0.98;;;0.73;;
71290;SDS011;59073;51.994;4.448;2022-12-07T18:36:05;0.92;;;0.68;;
71290;SDS011;59073;51.994;4.448;2022-12-07T18:38:32;1.00;;;0.74;;
71290;SDS011;59073;51.994;4.448;2022-12-07T18:40:58;1.60;;;1.21;;
71290;SDS011;59073;51.994;4.448;2022-12-07T18:43:24;1.23;;;0.93;;
71290;SDS011;59073;51.994;4.448;2022-12-07T18:45:50;1.28;;;0.97;;
71290;SDS011;59073;51.994;4.448;2022-12-07T18:48:17;1.06;;;0.80;;
71290;SDS011;59073;51.994;4.448;2022-12-07T18:50:45;0.79;;;0.60;;
71290;SDS011;59073;51.994;4.448;2022-12-07T18:53:12;0.86;;;0.64;;
71290;SDS011;59073;51.994;4.448;2022-12-07T18:55:38;0.86;;;0.63;;
71290;SDS011;59073;51.994;4.448;2022-12-07T18:58:04;1.56;;;1.15;;
71290;SDS011;59073;51.994;4.448;2022-12-07T19:03:43;0.95;;;0.70;;
71290;SDS011;59073;51.994;4.448;2022-12-07T19:06:43;0.86;;;0.63;;
71290;SDS011;59073;51.994;4.448;2022-12-07T19:16:41;0.66;;;0.48;;
71290;SDS011;59073;51.994;4.448;2022-12-07T19:19:27;0.73;;;0.54;;
71290;SDS011;59073;51.994;4.448;2022-12-07T19:22:20;0.81;;;0.60;;
71290;SDS011;59073;51.994;4.448;2022-12-07T19:28:40;0.84;;;0.64;;
71290;SDS011;59073;51.994;4.448;2022-12-07T19:38:28;0.73;;;0.57;;
71290;SDS011;59073;51.994;4.448;2022-12-07T19:41:42;0.80;;;0.63;;
71290;SDS011;59073;51.994;4.448;2022-12-07T19:44:37;0.92;;;0.74;;
71290;SDS011;59073;51.994;4.448;2022-12-07T19:47:09;0.69;;;0.56;;
71290;SDS011;59073;51.994;4.448;2022-12-07T19:50:22;0.80;;;0.66;;
71290;SDS011;59073;51.994;4.448;2022-12-07T19:53:39;1.13;;;0.94;;
71290;SDS011;59073;51.994;4.448;2022-12-07T19:56:10;0.83;;;0.70;;
71290;SDS011;59073;51.994;4.448;2022-12-07T19:59:07;0.92;;;0.79;;
71290;SDS011;59073;51.994;4.448;2022-12-07T20:01:52;0.90;;;0.77;;
71290;SDS011;59073;51.994;4.448;2022-12-07T20:04:25;1.22;;;1.05;;
71290;SDS011;59073;51.994;4.448;2022-12-07T20:07:00;1.06;;;0.93;;
71290;SDS011;59073;51.994;4.448;2022-12-07T20:09:54;1.23;;;1.09;;
71290;SDS011;59073;51.994;4.448;2022-12-07T20:19:36;1.35;;;1.27;;
71290;SDS011;59073;51.994;4.448;2022-12-07T20:25:28;1.25;;;1.18;;
71290;SDS011;59073;51.994;4.448;2022-12-07T20:27:53;1.01;;;0.95;;
71290;SDS011;59073;51.994;4.448;2022-12-07T20:30:21;0.63;;;0.60;;
71290;SDS011;59073;51.994;4.448;2022-12-07T20:33:13;0.74;;;0.71;;
71290;SDS011;59073;51.994;4.448;2022-12-07T20:36:56;0.81;;;0.78;;
71290;SDS011;59073;51.994;4.448;2022-12-07T20:42:47;0.70;;;0.67;;
71290;SDS011;59073;51.994;4.448;2022-12-07T20:45:35;0.62;;;0.60;;
71290;SDS011;59073;51.994;4.448;2022-12-07T20:48:23;0.48;;;0.46;;
71290;SDS011;59073;51.994;4.448;2022-12-07T20:54:36;0.78;;;0.74;;
71290;SDS011;59073;51.994;4.448;2022-12-07T21:04:02;1.01;;;0.92;;
71290;SDS011;59073;51.994;4.448;2022-12-07T21:09:40;1.11;;;1.01;;
71290;SDS011;59073;51.994;4.448;2022-12-07T21:12:26;1.23;;;1.12;;
71290;SDS011;59073;51.994;4.448;2022-12-07T21:15:16;1.08;;;1.00;;
71290;SDS011;59073;51.994;4.448;2022-12-07T21:18:09;1.17;;;1.10;;
71290;SDS011;59073;51.994;4.448;2022-12-07T21:25:03;1.00;;;0.93;;
71290;SDS011;59073;51.994;4.448;2022-12-07T21:28:21;0.77;;;0.72;;
71290;SDS011;59073;51.994;4.448;2022-12-07T21:35:11;0.73;;;0.68;;
71290;SDS011;59073;51.994;4.448;2022-12-07T21:37:36;0.80;;;0.73;;
71290;SDS011;59073;51.994;4.448;2022-12-07T21:40:04;0.63;;;0.57;;
71290;SDS011;59073;51.994;4.448;2022-12-07T21:42:30;0.72;;;0.65;;
71290;SDS011;59073;51.994;4.448;2022-12-07T21:44:58;0.78;;;0.70;;
71290;SDS011;59073;51.994;4.448;2022-12-07T21:47:24;0.76;;;0.67;;
71290;SDS011;59073;51.994;4.448;2022-12-07T21:50:08;0.57;;;0.49;;
71290;SDS011;59073;51.994;4.448;2022-12-07T21:52:49;0.45;;;0.39;;
71290;SDS011;59073;51.994;4.448;2022-12-07T21:55:20;0.51;;;0.44;;
71290;SDS011;59073;51.994;4.448;2022-12-07T21:57:55;0.51;;;0.44;;
71290;SDS011;59073;51.994;4.448;2022-12-07T22:01:04;0.73;;;0.62;;